Oil Finn — OJ9326 — position and weather

sailwx.info

Track history (hours):
 
Tides and Currents Weather Stations Pressure Air Temp Water Temp Dewpoint Dewpoint Depression Visibility Wind Speed Wind Dir Waves Ship Positions

Oil Finn

Last reported at 2017-Aug-16 10:03 UTC. Time now 2017-Aug-17 23:30 UTC.
Position N 60°11' E 024°58'.

Length 20 m; draft 2 m.

Type: Tanker. MMSI: 230033790.

Date/timePositionNaut miles runAvg speedWind from/ knotsBaromVisibWave heightAir tempDewpointWater temp
2017-Aug-16 10:03N 60°11' E 024°58'0 0.0
2017-Aug-16 10:01N 60°11' E 024°58'0 0.0
2017-Aug-16 09:31N 60°11' E 024°58'1 1.7
2017-Aug-16 09:00N 60°10' E 024°58'1 1.2
2017-Aug-16 08:30N 60°10' E 024°59'1 2.2
2017-Aug-16 08:01N 60°09' E 024°57'0 0.4
2017-Aug-16 07:31N 60°09' E 024°57'0 0.0
2017-Aug-16 07:00N 60°09' E 024°57'0 0.1
2017-Aug-16 06:31N 60°09' E 024°57'1 2.3
2017-Aug-16 06:00N 60°09' E 024°59'0 0.9
2017-Aug-16 05:31N 60°09' E 024°59'0 0.9
2017-Aug-16 05:00N 60°10' E 024°59'1 0.1
2017-Aug-15 14:42N 60°11' E 024°58'0 2.0
2017-Aug-15 14:31N 60°11' E 024°58'3 5.5
2017-Aug-15 14:00N 60°09' E 025°03'2 4.6
2017-Aug-15 13:30N 60°10' E 025°08'3 5.5
2017-Aug-15 13:01N 60°12' E 025°12'3 5.6
2017-Aug-15 12:30N 60°14' E 025°14'3 5.7
2017-Aug-15 12:00N 60°15' E 025°20'1 1.9
2017-Aug-15 11:31N 60°14' E 025°21'1 1.3
2017-Aug-15 11:01N 60°15' E 025°21'2 4.4
2017-Aug-15 10:30N 60°13' E 025°22'2 4.7
2017-Aug-15 10:01N 60°12' E 025°26'2 3.5
2017-Aug-15 09:31N 60°11' E 025°29'1 2.8
2017-Aug-15 09:01N 60°10' E 025°26'0 0.0
2017-Aug-15 08:30N 60°10' E 025°26'0 0.0
2017-Aug-15 08:00N 60°10' E 025°26'0 0.8
2017-Aug-15 07:30N 60°10' E 025°26'0 0.0
2017-Aug-15 07:01N 60°10' E 025°26'2 3.5
2017-Aug-15 06:30N 60°10' E 025°23'3 5.8
2017-Aug-15 06:01N 60°12' E 025°18'3 6.4
2017-Aug-15 05:30N 60°11' E 025°12'2 4.0
2017-Aug-15 05:01N 60°10' E 025°08'3 5.5
2017-Aug-15 04:31N 60°09' E 025°02'2 5.0
2017-Aug-15 04:01N 60°11' E 024°58'0 0.5
2017-Aug-15 03:30N 60°11' E 024°58'0 0.0
2017-Aug-15 03:00N 60°11' E 024°58'0 0.0
2017-Aug-14 11:15N 60°11' E 024°58'0 0.1
2017-Aug-14 11:00N 60°11' E 024°58'0 0.0
2017-Aug-14 10:30N 60°11' E 024°58'1 1.5
2017-Aug-14 10:01N 60°10' E 024°58'0 0.3
2017-Aug-14 09:30N 60°10' E 024°58'1 2.8
2017-Aug-14 09:00N 60°09' E 024°59'1 2.3
2017-Aug-14 08:30N 60°09' E 024°57'0 0.4
2017-Aug-14 08:00N 60°09' E 024°57'0 0.0
2017-Aug-14 07:30N 60°09' E 024°57'0 0.0
2017-Aug-14 07:00N 60°09' E 024°57'0 0.1
2017-Aug-14 06:30N 60°09' E 024°57'2 3.4
2017-Aug-14 06:00N 60°11' E 024°58'0 0.6
2017-Aug-14 05:30N 60°11' E 024°58'0 0.1
2017-Aug-14 05:01N 60°11' E 024°58'0 0.1
2017-Aug-14 04:30N 60°11' E 024°58'0 0.0
2017-Aug-14 04:00N 60°11' E 024°58'  
2017-Aug-11 08:34N 60°11' E 024°58'0 0.0
2017-Aug-11 08:30N 60°11' E 024°58'0 0.0
2017-Aug-11 08:00N 60°11' E 024°58'1 2.1
2017-Aug-11 07:30N 60°10' E 024°59'1 2.0
2017-Aug-11 07:01N 60°09' E 024°58'1 1.5
2017-Aug-11 06:30N 60°09' E 024°57'0 0.0
2017-Aug-11 06:00N 60°09' E 024°57'0 0.0
2017-Aug-11 05:30N 60°09' E 024°57'1 2.8
2017-Aug-11 05:01N 60°10' E 024°59'0 0.9
2017-Aug-11 04:30N 60°11' E 024°59'1 1.0
2017-Aug-11 04:00N 60°11' E 024°58'0 0.5
2017-Aug-11 03:30N 60°11' E 024°58'0 0.0
2017-Aug-11 03:00N 60°11' E 024°58'0 0.0
2017-Aug-10 09:56N 60°11' E 024°58'1 1.6
2017-Aug-10 09:30N 60°10' E 024°58'0 0.0
2017-Aug-10 09:00N 60°10' E 024°58'1 2.8
2017-Aug-10 08:30N 60°09' E 024°59'2 4.8
2017-Aug-10 08:01N 60°07' E 024°59'1 1.2
2017-Aug-10 07:29N 60°06' E 024°58'0 0.0
2017-Aug-10 06:59N 60°06' E 024°58'0 0.0
2017-Aug-10 06:29N 60°06' E 024°58'0 0.0
2017-Aug-10 06:00N 60°06' E 024°58'2 4.8
2017-Aug-10 05:30N 60°09' E 025°00'0 0.9
2017-Aug-10 05:01N 60°08' E 025°01'0 0.4
2017-Aug-10 04:30N 60°08' E 025°01'3 5.6
2017-Aug-10 04:01N 60°11' E 024°58'0 0.5
2017-Aug-10 03:28N 60°11' E 024°58'0 0.0
2017-Aug-10 03:00N 60°11' E 024°58'0 0.0
2017-Aug-09 10:59N 60°11' E 024°58'0 0.0
2017-Aug-09 10:30N 60°11' E 024°58'0 0.0
2017-Aug-09 10:00N 60°11' E 024°58'0 0.0
2017-Aug-09 09:30N 60°11' E 024°58'2 3.5
2017-Aug-09 09:00N 60°09' E 024°59'1 2.3
2017-Aug-09 08:31N 60°09' E 024°57'0 0.3
2017-Aug-09 08:00N 60°09' E 024°57'0 0.0
2017-Aug-09 07:30N 60°09' E 024°57'0 0.0
2017-Aug-09 07:00N 60°09' E 024°57'1 1.4
2017-Aug-09 06:30N 60°09' E 024°58'0 0.8
2017-Aug-09 06:00N 60°09' E 024°59'0 0.0
2017-Aug-09 05:30N 60°09' E 024°59'1 2.9
2017-Aug-09 05:00N 60°10' E 024°57'1 1.9
2017-Aug-09 04:30N 60°11' E 024°58'0 0.0
2017-Aug-07 11:33N 60°11' E 024°58'0 0.0
2017-Aug-07 11:30N 60°11' E 024°58'0 0.0
2017-Aug-07 11:00N 60°11' E 024°58'0 0.0
2017-Aug-07 10:30N 60°11' E 024°58'0 0.0
2017-Aug-07 10:00N 60°11' E 024°58'2 3.5
2017-Aug-07 09:30N 60°09' E 024°59'0 0.0
2017-Aug-07 09:00N 60°09' E 024°59'0 0.0
2017-Aug-07 08:30N 60°09' E 024°59'1 1.7
2017-Aug-07 08:01N 60°10' E 024°58'0 0.9
2017-Aug-07 07:30N 60°09' E 024°57'0 0.4
2017-Aug-07 07:00N 60°09' E 024°57'0 0.1
2017-Aug-07 06:30N 60°09' E 024°57'1 2.2
2017-Aug-07 06:00N 60°10' E 024°59'1 2.0
2017-Aug-07 05:30N 60°11' E 024°58'0 0.1
2017-Aug-07 05:00N 60°11' E 024°58'1 1.1
2017-Aug-07 04:30N 60°11' E 024°58'0 0.0
2017-Aug-07 04:00N 60°11' E 024°58'0 0.5
2017-Aug-07 03:30N 60°11' E 024°58'0 0.0
2017-Aug-07 03:00N 60°11' E 024°58'  
Track history (hours):
 
Tides and Currents Weather Stations Pressure Air Temp Water Temp Dewpoint Dewpoint Depression Visibility Wind Speed Wind Dir Waves Ship Positions

Oil Finn

Last reported at 2017-Aug-16 10:03 UTC. Time now 2017-Aug-17 23:30 UTC.
Position N 60°11' E 024°58'.

Length 20 m; draft 2 m.

Type: Tanker. MMSI: 230033790.

Date/timePositionNaut miles runAvg speedWind from/ knotsBaromVisibWave heightAir tempDewpointWater temp
2017-Aug-16 10:03N 60°11' E 024°58'0 0.0
2017-Aug-16 10:01N 60°11' E 024°58'0 0.0
2017-Aug-16 09:31N 60°11' E 024°58'1 1.7
2017-Aug-16 09:00N 60°10' E 024°58'1 1.2
2017-Aug-16 08:30N 60°10' E 024°59'1 2.2
2017-Aug-16 08:01N 60°09' E 024°57'0 0.4
2017-Aug-16 07:31N 60°09' E 024°57'0 0.0
2017-Aug-16 07:00N 60°09' E 024°57'0 0.1
2017-Aug-16 06:31N 60°09' E 024°57'1 2.3
2017-Aug-16 06:00N 60°09' E 024°59'0 0.9
2017-Aug-16 05:31N 60°09' E 024°59'0 0.9
2017-Aug-16 05:00N 60°10' E 024°59'1 0.1
2017-Aug-15 14:42N 60°11' E 024°58'0 2.0
2017-Aug-15 14:31N 60°11' E 024°58'3 5.5
2017-Aug-15 14:00N 60°09' E 025°03'2 4.6
2017-Aug-15 13:30N 60°10' E 025°08'3 5.5
2017-Aug-15 13:01N 60°12' E 025°12'3 5.6
2017-Aug-15 12:30N 60°14' E 025°14'3 5.7
2017-Aug-15 12:00N 60°15' E 025°20'1 1.9
2017-Aug-15 11:31N 60°14' E 025°21'1 1.3
2017-Aug-15 11:01N 60°15' E 025°21'2 4.4
2017-Aug-15 10:30N 60°13' E 025°22'2 4.7
2017-Aug-15 10:01N 60°12' E 025°26'2 3.5
2017-Aug-15 09:31N 60°11' E 025°29'1 2.8
2017-Aug-15 09:01N 60°10' E 025°26'0 0.0
2017-Aug-15 08:30N 60°10' E 025°26'0 0.0
2017-Aug-15 08:00N 60°10' E 025°26'0 0.8
2017-Aug-15 07:30N 60°10' E 025°26'0 0.0
2017-Aug-15 07:01N 60°10' E 025°26'2 3.5
2017-Aug-15 06:30N 60°10' E 025°23'3 5.8
2017-Aug-15 06:01N 60°12' E 025°18'3 6.4
2017-Aug-15 05:30N 60°11' E 025°12'2 4.0
2017-Aug-15 05:01N 60°10' E 025°08'3 5.5
2017-Aug-15 04:31N 60°09' E 025°02'2 5.0
2017-Aug-15 04:01N 60°11' E 024°58'0 0.5
2017-Aug-15 03:30N 60°11' E 024°58'0 0.0
2017-Aug-15 03:00N 60°11' E 024°58'0 0.0
2017-Aug-14 11:15N 60°11' E 024°58'0 0.1
2017-Aug-14 11:00N 60°11' E 024°58'0 0.0
2017-Aug-14 10:30N 60°11' E 024°58'1 1.5
2017-Aug-14 10:01N 60°10' E 024°58'0 0.3
2017-Aug-14 09:30N 60°10' E 024°58'1 2.8
2017-Aug-14 09:00N 60°09' E 024°59'1 2.3
2017-Aug-14 08:30N 60°09' E 024°57'0 0.4
2017-Aug-14 08:00N 60°09' E 024°57'0 0.0
2017-Aug-14 07:30N 60°09' E 024°57'0 0.0
2017-Aug-14 07:00N 60°09' E 024°57'0 0.1
2017-Aug-14 06:30N 60°09' E 024°57'2 3.4
2017-Aug-14 06:00N 60°11' E 024°58'0 0.6
2017-Aug-14 05:30N 60°11' E 024°58'0 0.1
2017-Aug-14 05:01N 60°11' E 024°58'0 0.1
2017-Aug-14 04:30N 60°11' E 024°58'0 0.0
2017-Aug-14 04:00N 60°11' E 024°58'  
2017-Aug-11 08:34N 60°11' E 024°58'0 0.0
2017-Aug-11 08:30N 60°11' E 024°58'0 0.0
2017-Aug-11 08:00N 60°11' E 024°58'1 2.1
2017-Aug-11 07:30N 60°10' E 024°59'1 2.0
2017-Aug-11 07:01N 60°09' E 024°58'1 1.5
2017-Aug-11 06:30N 60°09' E 024°57'0 0.0
2017-Aug-11 06:00N 60°09' E 024°57'0 0.0
2017-Aug-11 05:30N 60°09' E 024°57'1 2.8
2017-Aug-11 05:01N 60°10' E 024°59'0 0.9
2017-Aug-11 04:30N 60°11' E 024°59'1 1.0
2017-Aug-11 04:00N 60°11' E 024°58'0 0.5
2017-Aug-11 03:30N 60°11' E 024°58'0 0.0
2017-Aug-11 03:00N 60°11' E 024°58'0 0.0
2017-Aug-10 09:56N 60°11' E 024°58'1 1.6
2017-Aug-10 09:30N 60°10' E 024°58'0 0.0
2017-Aug-10 09:00N 60°10' E 024°58'1 2.8
2017-Aug-10 08:30N 60°09' E 024°59'2 4.8
2017-Aug-10 08:01N 60°07' E 024°59'1 1.2
2017-Aug-10 07:29N 60°06' E 024°58'0 0.0
2017-Aug-10 06:59N 60°06' E 024°58'0 0.0
2017-Aug-10 06:29N 60°06' E 024°58'0 0.0
2017-Aug-10 06:00N 60°06' E 024°58'2 4.8
2017-Aug-10 05:30N 60°09' E 025°00'0 0.9
2017-Aug-10 05:01N 60°08' E 025°01'0 0.4
2017-Aug-10 04:30N 60°08' E 025°01'3 5.6
2017-Aug-10 04:01N 60°11' E 024°58'0 0.5
2017-Aug-10 03:28N 60°11' E 024°58'0 0.0
2017-Aug-10 03:00N 60°11' E 024°58'0 0.0
2017-Aug-09 10:59N 60°11' E 024°58'0 0.0
2017-Aug-09 10:30N 60°11' E 024°58'0 0.0
2017-Aug-09 10:00N 60°11' E 024°58'0 0.0
2017-Aug-09 09:30N 60°11' E 024°58'2 3.5
2017-Aug-09 09:00N 60°09' E 024°59'1 2.3
2017-Aug-09 08:31N 60°09' E 024°57'0 0.3
2017-Aug-09 08:00N 60°09' E 024°57'0 0.0
2017-Aug-09 07:30N 60°09' E 024°57'0 0.0
2017-Aug-09 07:00N 60°09' E 024°57'1 1.4
2017-Aug-09 06:30N 60°09' E 024°58'0 0.8
2017-Aug-09 06:00N 60°09' E 024°59'0 0.0
2017-Aug-09 05:30N 60°09' E 024°59'1 2.9
2017-Aug-09 05:00N 60°10' E 024°57'1 1.9
2017-Aug-09 04:30N 60°11' E 024°58'0 0.0
2017-Aug-07 11:33N 60°11' E 024°58'0 0.0
2017-Aug-07 11:30N 60°11' E 024°58'0 0.0
2017-Aug-07 11:00N 60°11' E 024°58'0 0.0
2017-Aug-07 10:30N 60°11' E 024°58'0 0.0
2017-Aug-07 10:00N 60°11' E 024°58'2 3.5
2017-Aug-07 09:30N 60°09' E 024°59'0 0.0
2017-Aug-07 09:00N 60°09' E 024°59'0 0.0
2017-Aug-07 08:30N 60°09' E 024°59'1 1.7
2017-Aug-07 08:01N 60°10' E 024°58'0 0.9
2017-Aug-07 07:30N 60°09' E 024°57'0 0.4
2017-Aug-07 07:00N 60°09' E 024°57'0 0.1
2017-Aug-07 06:30N 60°09' E 024°57'1 2.2
2017-Aug-07 06:00N 60°10' E 024°59'1 2.0
2017-Aug-07 05:30N 60°11' E 024°58'0 0.1
2017-Aug-07 05:00N 60°11' E 024°58'1 1.1
2017-Aug-07 04:30N 60°11' E 024°58'0 0.0
2017-Aug-07 04:00N 60°11' E 024°58'0 0.5
2017-Aug-07 03:30N 60°11' E 024°58'0 0.0
2017-Aug-07 03:00N 60°11' E 024°58'  

Dump ship's entire track history